Time;durP1;ratioP1;P1;durP2;ratioP2;P2;SDS_P1;SDS_P2;PMS_P1;PMS_P2;Temp;Humidity;BMP_temperature;BMP_pressure;BME280_temperature;BME280_humidity;BME280_pressure;Samples;Min_cycle;Max_cycle;Signal;HPM_P1;HPM_P2
2022/02/09 00:04:41;;;;;;;9.23;3.78;;;10.50;99.90;;;;;;5097167;28;20028;-86
2022/02/09 00:07:11;;;;;;;8.65;3.90;;;10.50;99.90;;;;;;5097093;28;20032;-86
2022/02/09 00:09:39;;;;;;;5.28;3.50;;;10.50;99.90;;;;;;5077572;28;20038;-88
2022/02/09 00:12:10;;;;;;;10.88;4.03;;;10.50;99.90;;;;;;5078982;28;20508;-88
2022/02/09 00:20:16;;;;;;;5.50;3.40;;;10.50;99.90;;;;;;5080416;28;20411;-86
2022/02/09 00:31:06;;;;;;;6.00;3.42;;;10.50;99.90;;;;;;5096608;28;20040;-86
2022/02/09 01:51:09;;;;;;;7.13;3.42;;;10.50;99.90;;;;;;5094997;28;20467;-86
2022/02/09 01:57:16;;;;;;;6.55;4.55;;;10.50;99.90;;;;;;5079819;28;20043;-86
2022/02/09 01:59:45;;;;;;;6.60;4.78;;;10.50;99.90;;;;;;5094596;28;20024;-87
2022/02/09 02:02:11;;;;;;;8.02;4.65;;;10.50;99.90;;;;;;5076777;28;20510;-86
2022/02/09 02:04:37;;;;;;;6.10;4.60;;;10.50;99.90;;;;;;5076138;28;20036;-86
2022/02/09 02:07:08;;;;;;;6.15;4.90;;;10.40;99.90;;;;;;5075845;28;20028;-86
2022/02/09 02:09:37;;;;;;;8.98;5.32;;;10.40;99.90;;;;;;5060051;28;20477;-87
2022/02/09 02:12:11;;;;;;;8.10;5.28;;;10.40;99.90;;;;;;5060170;28;20055;-86
2022/02/09 02:14:45;;;;;;;8.63;5.38;;;10.40;99.90;;;;;;5060924;28;20366;-87
2022/02/09 02:20:00;;;;;;;7.38;5.00;;;10.40;99.90;;;;;;5094913;28;20042;-86
2022/02/09 02:22:45;;;;;;;7.30;5.32;;;10.40;99.90;;;;;;5060496;28;20082;-88
2022/02/09 02:25:44;;;;;;;7.22;5.20;;;10.40;99.90;;;;;;5079506;28;20119;-87
2022/02/09 02:44:21;;;;;;;7.32;4.80;;;10.40;99.90;;;;;;5078731;28;20415;-86
2022/02/09 03:13:28;;;;;;;6.03;4.25;;;10.30;99.90;;;;;;5077027;28;20377;-86
2022/02/09 03:16:01;;;;;;;5.28;4.05;;;10.30;99.90;;;;;;5059969;28;20032;-86
2022/02/09 03:21:15;;;;;;;6.65;4.20;;;10.30;99.90;;;;;;5077139;28;20063;-86
2022/02/09 03:42:19;;;;;;;5.43;3.97;;;10.30;99.90;;;;;;5078362;28;20085;-87
2022/02/09 03:42:50;;;;;;;8.10;4.97;;;10.30;99.90;;;;;;5064621;28;20567;-86
2022/02/09 03:50:50;;;;;;;7.57;5.60;;;10.20;99.90;;;;;;5093593;28;20054;-86
2022/02/09 03:58:51;;;;;;;8.25;6.22;;;10.20;99.90;;;;;;5076964;28;20044;-87
2022/02/09 04:01:18;;;;;;;7.03;5.80;;;10.20;99.90;;;;;;5042094;28;20115;-86
2022/02/09 04:03:44;;;;;;;8.57;6.55;;;10.20;99.90;;;;;;5058801;28;20035;-86
2022/02/09 04:06:10;;;;;;;8.88;6.68;;;10.10;99.90;;;;;;5075290;28;20459;-87
2022/02/09 04:08:44;;;;;;;8.98;6.57;;;10.10;99.90;;;;;;5075244;28;20115;-86
2022/02/09 04:11:17;;;;;;;8.05;6.53;;;10.10;99.90;;;;;;5076598;28;20036;-86
2022/02/09 04:41:03;;;;;;;11.32;9.20;;;9.90;99.90;;;;;;5080062;28;20032;-86
2022/02/09 04:51:25;;;;;;;11.32;9.70;;;9.90;99.90;;;;;;5099666;28;20124;-86
2022/02/09 04:56:49;;;;;;;11.73;9.60;;;9.80;99.90;;;;;;5089199;28;20043;-89
2022/02/09 05:18:44;;;;;;;12.05;10.75;;;9.70;99.90;;;;;;5066340;28;20133;-87
2022/02/09 05:28:35;;;;;;;13.05;11.18;;;9.80;99.90;;;;;;5095822;28;20114;-87
2022/02/09 05:31:03;;;;;;;13.30;11.32;;;9.70;99.90;;;;;;5060971;28;20028;-87
2022/02/09 05:33:29;;;;;;;13.23;11.82;;;9.70;99.90;;;;;;5061126;28;20041;-87
2022/02/09 05:35:54;;;;;;;12.98;11.57;;;9.70;99.90;;;;;;5044359;28;20058;-86
2022/02/09 05:38:20;;;;;;;14.95;12.13;;;9.70;99.90;;;;;;5045082;28;20086;-85
2022/02/09 05:40:46;;;;;;;14.23;12.73;;;9.70;99.90;;;;;;5056718;28;20477;-86
2022/02/09 05:43:13;;;;;;;14.80;13.30;;;9.70;99.90;;;;;;5073460;28;20535;-86
2022/02/09 05:51:23;;;;;;;14.55;12.20;;;9.70;99.90;;;;;;5045740;28;20071;-87
2022/02/09 05:56:37;;;;;;;13.38;11.00;;;9.70;99.90;;;;;;5067795;28;20029;-87
2022/02/09 05:59:16;;;;;;;14.10;12.68;;;9.60;99.90;;;;;;5036457;28;20104;-86
2022/02/09 06:01:43;;;;;;;14.30;12.75;;;9.60;99.90;;;;;;5002121;28;20048;-87
2022/02/09 06:04:09;;;;;;;16.02;12.98;;;9.60;99.90;;;;;;5058639;28;20470;-87
2022/02/09 06:06:34;;;;;;;14.32;12.82;;;9.60;99.90;;;;;;5068889;28;20039;-88
2022/02/09 06:09:01;;;;;;;15.00;13.07;;;9.60;99.90;;;;;;5017524;28;20046;-87
2022/02/09 06:21:57;;;;;;;13.57;11.60;;;9.60;99.90;;;;;;5064545;28;20032;-87
2022/02/09 06:24:23;;;;;;;13.90;12.10;;;9.60;99.90;;;;;;5052909;28;20388;-87
2022/02/09 06:26:49;;;;;;;13.55;11.75;;;9.60;99.90;;;;;;5052769;28;20094;-86
2022/02/09 06:29:15;;;;;;;11.88;10.57;;;9.60;99.90;;;;;;5041544;28;20029;-86
2022/02/09 06:31:43;;;;;;;14.43;11.07;;;9.60;99.90;;;;;;5046157;28;20021;-85
2022/02/09 06:34:12;;;;;;;13.05;10.38;;;9.60;99.90;;;;;;5063286;28;20048;-86
2022/02/09 06:36:42;;;;;;;13.13;10.82;;;9.60;99.90;;;;;;5068054;28;20036;-86
2022/02/09 06:39:09;;;;;;;13.15;10.18;;;9.60;99.90;;;;;;5066482;28;20048;-86
2022/02/09 06:41:35;;;;;;;11.35;9.27;;;9.60;99.90;;;;;;5034758;28;20095;-87
2022/02/09 06:44:02;;;;;;;10.68;9.55;;;9.60;99.90;;;;;;5061289;28;20470;-86
2022/02/09 06:46:33;;;;;;;12.50;10.02;;;9.60;99.90;;;;;;5080416;28;20029;-86
2022/02/09 06:49:04;;;;;;;;;;;9.60;99.90;;;;;;5064792;28;20097;-86
2022/02/09 06:51:33;;;;;;;9.23;8.02;;;9.50;99.90;;;;;;5044559;28;19912;-86
2022/02/09 06:54:03;;;;;;;13.32;9.40;;;9.40;99.90;;;;;;5036597;28;20043;-86
2022/02/09 06:56:45;;;;;;;11.73;10.10;;;9.50;99.90;;;;;;5036142;28;20025;-86
2022/02/09 07:01:46;;;;;;;10.82;9.18;;;9.40;99.90;;;;;;5062242;28;20373;-83
2022/02/09 07:04:11;;;;;;;10.60;9.20;;;9.50;99.90;;;;;;5034075;28;20016;-85
2022/02/09 07:06:37;;;;;;;11.52;9.20;;;9.40;99.90;;;;;;5055698;28;20443;-86
2022/02/09 07:09:03;;;;;;;10.60;8.20;;;9.50;99.90;;;;;;5055492;28;20047;-87
2022/02/09 07:11:29;;;;;;;9.63;7.97;;;9.50;99.90;;;;;;5072499;28;20096;-85
2022/02/09 07:13:55;;;;;;;9.95;8.68;;;9.40;99.90;;;;;;5055744;28;20381;-85
2022/02/09 07:16:22;;;;;;;10.15;8.30;;;9.40;99.90;;;;;;5038890;28;20449;-85
2022/02/09 07:18:48;;;;;;;11.55;9.30;;;9.40;99.90;;;;;;5072699;28;20036;-85
2022/02/09 07:21:20;;;;;;;9.93;8.52;;;9.40;99.90;;;;;;5072077;28;20052;-86
2022/02/09 07:23:49;;;;;;;10.05;8.80;;;9.40;99.90;;;;;;5039790;28;20469;-87
2022/02/09 07:26:48;;;;;;;9.88;8.88;;;9.40;99.90;;;;;;5023213;28;20087;-87
2022/02/09 07:29:01;;;;;;;10.45;8.90;;;9.40;99.90;;;;;;5072493;28;20036;-86
2022/02/09 07:31:27;;;;;;;11.98;9.05;;;9.40;99.90;;;;;;5022090;28;20388;-86
2022/02/09 07:33:53;;;;;;;11.07;8.48;;;9.40;99.90;;;;;;5038866;28;20029;-86
2022/02/09 07:36:22;;;;;;;10.98;7.95;;;9.40;99.90;;;;;;5055080;28;20052;-87
2022/02/09 07:38:48;;;;;;;10.07;8.00;;;9.40;99.90;;;;;;5055039;28;20036;-87
2022/02/09 07:41:18;;;;;;;9.60;8.50;;;9.30;99.90;;;;;;5054699;28;20078;-88
2022/02/09 07:44:05;;;;;;;9.82;8.70;;;9.30;99.90;;;;;;5022299;28;20046;-89
2022/02/09 07:46:41;;;;;;;9.98;8.82;;;9.30;99.90;;;;;;5052067;28;20036;-87
2022/02/09 07:51:52;;;;;;;8.85;7.53;;;9.40;99.90;;;;;;5040942;28;20099;-86
2022/02/09 07:54:20;;;;;;;10.48;8.93;;;9.40;99.90;;;;;;5052272;28;20021;-87
2022/02/09 07:56:46;;;;;;;10.40;8.93;;;9.30;99.90;;;;;;5035139;28;20021;-85
2022/02/09 07:59:15;;;;;;;13.25;9.93;;;9.30;99.90;;;;;;5060248;28;20028;-86
2022/02/09 08:01:41;;;;;;;12.65;10.40;;;9.30;99.90;;;;;;5054167;28;20480;-86
2022/02/09 08:04:07;;;;;;;11.50;10.07;;;9.30;99.90;;;;;;5055125;28;20040;-85
2022/02/09 08:06:33;;;;;;;10.88;9.70;;;9.40;99.90;;;;;;5063771;28;20020;-86
2022/02/09 08:09:05;;;;;;;11.80;10.15;;;9.40;99.90;;;;;;5065842;28;20394;-86
2022/02/09 08:11:42;;;;;;;11.30;9.43;;;9.30;99.90;;;;;;5066153;28;20047;-86
2022/02/09 08:33:03;;;;;;;13.10;11.35;;;9.30;99.90;;;;;;5056336;28;20377;-85
2022/02/09 08:35:39;;;;;;;16.30;12.85;;;9.30;99.90;;;;;;5041280;28;20036;-87
2022/02/09 08:38:05;;;;;;;14.30;12.05;;;9.30;99.90;;;;;;5055255;28;20036;-86
2022/02/09 08:40:31;;;;;;;18.58;13.48;;;9.40;99.90;;;;;;5056436;28;20024;-87
2022/02/09 08:42:58;;;;;;;14.73;12.65;;;9.30;99.90;;;;;;5054540;28;20399;-87
2022/02/09 08:45:25;;;;;;;15.90;13.88;;;9.30;99.90;;;;;;5054512;28;20025;-87
2022/02/09 08:47:51;;;;;;;14.40;12.32;;;9.40;99.90;;;;;;5054382;28;20029;-86
2022/02/09 08:50:17;;;;;;;15.23;12.25;;;9.30;99.90;;;;;;5040771;28;20063;-87
2022/02/09 08:52:43;;;;;;;17.20;13.05;;;9.30;99.90;;;;;;5075918;28;20449;-87
2022/02/09 08:55:10;;;;;;;17.05;14.18;;;9.40;99.90;;;;;;5074629;28;20028;-87
2022/02/09 08:57:36;;;;;;;18.02;13.88;;;9.40;99.90;;;;;;5074487;28;20029;-88
2022/02/09 09:00:14;;;;;;;17.10;13.10;;;9.40;99.90;;;;;;5074352;28;20024;-87
2022/02/09 09:02:45;;;;;;;15.02;12.45;;;9.40;99.90;;;;;;5074616;28;20515;-88
2022/02/09 09:05:20;;;;;;;18.25;14.07;;;9.40;99.90;;;;;;5074500;28;20017;-88
2022/02/09 09:07:51;;;;;;;17.02;14.50;;;9.40;99.90;;;;;;5058801;28;20071;-87
2022/02/09 09:10:26;;;;;;;15.88;12.65;;;9.50;99.90;;;;;;5058654;28;20029;-87
2022/02/09 09:18:44;;;;;;;17.23;14.15;;;9.50;99.90;;;;;;5073637;28;20390;-85
2022/02/09 10:02:13;;;;;;;16.90;12.05;;;9.60;99.90;;;;;;5037264;28;20049;-86
2022/02/09 10:32:48;;;;;;;14.70;10.38;;;9.80;99.90;;;;;;5073282;28;20075;-87
2022/02/09 10:38:33;;;;;;;12.45;9.98;;;9.80;99.90;;;;;;5051092;28;20029;-88
2022/02/09 10:41:26;;;;;;;14.93;10.35;;;9.80;99.90;;;;;;5074611;28;20079;-88
2022/02/09 10:44:03;;;;;;;13.98;11.15;;;9.80;99.90;;;;;;5076494;28;20036;-87
2022/02/09 10:46:29;;;;;;;14.85;11.68;;;9.80;99.90;;;;;;5076385;28;20118;-88
2022/02/09 10:48:57;;;;;;;14.23;10.73;;;9.80;99.90;;;;;;5094262;28;20075;-88
2022/02/09 10:54:11;;;;;;;15.52;11.27;;;9.80;99.90;;;;;;5074184;28;20039;-88
2022/02/09 10:56:51;;;;;;;14.63;11.77;;;9.80;99.90;;;;;;5056227;28;20025;-89
2022/02/09 10:59:20;;;;;;;14.00;10.85;;;9.90;99.90;;;;;;5056121;28;20039;-88
2022/02/09 11:01:46;;;;;;;14.30;11.10;;;9.90;99.90;;;;;;5042973;28;20032;-87
2022/02/09 11:04:14;;;;;;;13.25;11.20;;;9.90;99.90;;;;;;5076072;28;20080;-87
2022/02/09 11:06:42;;;;;;;14.45;11.90;;;9.90;99.90;;;;;;5039494;28;20052;-87
2022/02/09 11:09:13;;;;;;;16.02;11.77;;;9.90;99.90;;;;;;5093866;28;20494;-87
2022/02/09 11:11:41;;;;;;;14.00;12.23;;;9.90;99.90;;;;;;5075753;28;20020;-87
2022/02/09 11:14:15;;;;;;;13.80;11.27;;;10.00;99.90;;;;;;5059318;28;20042;-87
2022/02/09 11:17:04;;;;;;;16.70;12.70;;;10.00;99.90;;;;;;5075623;28;20031;-87
2022/02/09 11:19:35;;;;;;;14.32;11.80;;;10.00;99.90;;;;;;5075783;28;20464;-87
2022/02/09 11:22:12;;;;;;;14.57;12.15;;;10.00;99.90;;;;;;5075758;28;20024;-88
2022/02/09 11:24:47;;;;;;;11.75;9.82;;;10.00;99.90;;;;;;5093846;28;20024;-88
2022/02/09 11:27:23;;;;;;;13.55;10.82;;;10.10;99.90;;;;;;5093654;28;20028;-87
2022/02/09 11:30:13;;;;;;;12.95;10.52;;;10.10;99.90;;;;;;5077054;28;20119;-87
2022/02/09 11:33:23;;;;;;;15.77;10.70;;;10.10;99.90;;;;;;5075801;28;20052;-87
2022/02/09 11:36:37;;;;;;;13.77;9.53;;;10.10;99.90;;;;;;5093605;28;20111;-88
2022/02/09 11:39:04;;;;;;;12.98;9.70;;;10.10;99.90;;;;;;5092968;28;20031;-87
2022/02/09 11:41:37;;;;;;;11.80;9.68;;;10.10;99.90;;;;;;5064229;28;20145;-87
2022/02/09 11:52:41;;;;;;;11.05;8.63;;;10.20;99.90;;;;;;5045932;28;20102;-86
2022/02/09 12:12:01;;;;;;;11.27;8.68;;;10.30;99.90;;;;;;5097182;28;20036;-87
2022/02/09 12:15:44;;;;;;;10.15;8.30;;;10.30;99.90;;;;;;5062956;28;20040;-87
2022/02/09 12:20:17;;;;;;;12.65;8.32;;;10.30;99.90;;;;;;5097072;28;20055;-88
2022/02/09 12:22:51;;;;;;;10.70;8.95;;;10.40;99.90;;;;;;5079213;28;20111;-88
2022/02/09 12:25:17;;;;;;;10.23;8.48;;;10.40;99.90;;;;;;5079165;28;20490;-88
2022/02/09 12:27:50;;;;;;;10.85;8.82;;;10.30;99.90;;;;;;5078797;28;20103;-86
2022/02/09 12:30:21;;;;;;;9.43;8.02;;;10.40;99.90;;;;;;5079503;28;20494;-87
2022/02/09 12:32:47;;;;;;;12.40;9.68;;;10.40;99.90;;;;;;5079081;28;20032;-87
2022/02/09 12:35:13;;;;;;;11.55;8.95;;;10.40;99.90;;;;;;5078689;28;20495;-87
2022/02/09 12:37:46;;;;;;;11.60;9.48;;;10.40;99.90;;;;;;5062232;28;20035;-87
2022/02/09 12:40:18;;;;;;;12.40;9.10;;;10.40;99.90;;;;;;5096615;28;20035;-87
2022/02/09 12:42:46;;;;;;;12.30;9.00;;;10.50;99.90;;;;;;5078030;28;20187;-87
2022/02/09 12:45:27;;;;;;;12.93;9.45;;;10.50;99.90;;;;;;5077965;28;20118;-87
2022/02/09 12:48:03;;;;;;;15.40;9.32;;;10.50;99.90;;;;;;5078498;28;20107;-87
2022/02/09 12:50:38;;;;;;;11.32;8.60;;;10.50;99.90;;;;;;5073763;28;20037;-87
2022/02/09 12:53:07;;;;;;;13.38;8.20;;;10.40;99.90;;;;;;5077765;28;20067;-87
2022/02/09 12:55:36;;;;;;;12.07;8.63;;;10.40;99.90;;;;;;5079149;28;20468;-87
2022/02/09 12:58:10;;;;;;;12.00;8.30;;;10.40;99.90;;;;;;5096191;28;20021;-87
2022/02/09 13:00:42;;;;;;;9.93;8.48;;;10.50;99.90;;;;;;5096597;28;20493;-87
2022/02/09 13:03:13;;;;;;;10.40;7.93;;;10.50;99.90;;;;;;5078363;28;20065;-87
2022/02/09 13:05:49;;;;;;;12.98;8.85;;;10.50;99.90;;;;;;5079437;28;20048;-87
2022/02/09 13:08:26;;;;;;;10.20;8.23;;;10.60;99.90;;;;;;5076779;28;20395;-87
2022/02/09 13:11:16;;;;;;;11.95;8.77;;;10.60;99.90;;;;;;5077165;28;20020;-87
2022/02/09 13:13:45;;;;;;;13.02;9.52;;;10.60;99.90;;;;;;5063927;28;20043;-86
2022/02/09 13:16:22;;;;;;;12.05;8.85;;;10.70;99.90;;;;;;5080129;28;20031;-91
2022/02/09 14:03:14;;;;;;;12.85;10.90;;;10.70;99.90;;;;;;5078078;28;20115;-86
2022/02/09 14:53:42;;;;;;;15.15;11.48;;;10.70;99.90;;;;;;5061975;28;20031;-86
2022/02/09 14:58:47;;;;;;;13.73;11.95;;;10.70;99.90;;;;;;5093472;28;20078;-88
2022/02/09 15:01:31;;;;;;;14.98;11.88;;;10.70;99.90;;;;;;5038838;28;20021;-86
2022/02/09 15:07:13;;;;;;;13.52;11.45;;;10.70;99.90;;;;;;5058394;28;20039;-86
2022/02/09 15:09:56;;;;;;;13.77;11.30;;;10.70;99.90;;;;;;5042315;28;20037;-86
2022/02/09 15:12:30;;;;;;;15.10;11.48;;;10.70;99.90;;;;;;5055341;28;20126;-86
2022/02/09 15:17:45;;;;;;;14.40;11.52;;;10.80;99.90;;;;;;5072111;28;20119;-87
2022/02/09 15:20:43;;;;;;;13.85;11.30;;;10.80;99.90;;;;;;5048595;28;20097;-85
2022/02/09 15:23:09;;;;;;;14.60;10.93;;;10.80;99.90;;;;;;5055010;28;20127;-87
2022/02/09 15:25:36;;;;;;;14.13;10.70;;;10.80;99.90;;;;;;5071929;28;20408;-86
2022/02/09 15:28:04;;;;;;;12.35;10.35;;;10.80;99.90;;;;;;5055219;28;20500;-86
2022/02/09 15:30:36;;;;;;;12.23;9.98;;;10.80;99.90;;;;;;5055140;28;20389;-87
2022/02/09 15:33:03;;;;;;;14.27;10.30;;;10.80;99.90;;;;;;5071760;28;20025;-86
2022/02/09 15:35:36;;;;;;;14.05;10.48;;;10.90;99.90;;;;;;5039135;28;20027;-87
2022/02/09 15:38:17;;;;;;;12.60;9.15;;;10.80;99.90;;;;;;5073350;28;20028;-87
2022/02/09 16:05:40;;;;;;;12.40;9.15;;;10.90;99.90;;;;;;5058292;28;20504;-87
2022/02/09 16:23:43;;;;;;;13.18;9.65;;;10.80;99.90;;;;;;5067478;28;20093;-88
2022/02/09 16:45:02;;;;;;;16.60;10.65;;;10.70;99.90;;;;;;5102583;28;20043;-86
2022/02/09 16:47:56;;;;;;;15.00;11.48;;;10.70;99.90;;;;;;5084494;28;20082;-85
2022/02/09 16:50:27;;;;;;;17.83;13.15;;;10.70;99.90;;;;;;5069280;28;20058;-87
2022/02/09 16:53:03;;;;;;;16.15;12.05;;;10.60;99.90;;;;;;5081431;28;20043;-87
2022/02/09 17:19:53;;;;;;;18.83;13.98;;;10.60;99.90;;;;;;5101488;28;20078;-87
2022/02/09 17:22:19;;;;;;;18.85;12.95;;;10.50;99.90;;;;;;5100345;28;20032;-89
2022/02/09 17:24:44;;;;;;;18.23;13.90;;;10.50;99.90;;;;;;5101121;28;20160;-86
2022/02/09 17:27:17;;;;;;;17.92;12.98;;;10.60;99.90;;;;;;5100233;28;20016;-85
2022/02/09 17:35:02;;;;;;;18.52;15.10;;;10.50;99.90;;;;;;5064178;28;20032;-85
2022/02/09 17:37:46;;;;;;;18.05;14.38;;;10.50;99.90;;;;;;5047844;28;20039;-85
2022/02/09 17:56:58;;;;;;;23.05;15.50;;;10.40;99.90;;;;;;5051186;28;20074;-86
2022/02/09 17:59:25;;;;;;;28.33;19.98;;;10.40;99.90;;;;;;5077931;28;20031;-88
2022/02/09 18:01:51;;;;;;;37.42;23.10;;;10.40;99.90;;;;;;5079924;28;20024;-87
2022/02/09 18:04:19;;;;;;;64.50;34.92;;;10.50;99.90;;;;;;5078380;28;20046;-87
2022/02/09 18:06:56;;;;;;;105.95;55.78;;;10.40;99.90;;;;;;5079824;28;20380;-87
2022/02/09 18:09:38;;;;;;;55.67;33.70;;;10.50;99.90;;;;;;5078442;28;20039;-86
2022/02/09 18:12:16;;;;;;;31.42;21.52;;;10.50;99.90;;;;;;5078396;28;20052;-85
2022/02/09 18:31:08;;;;;;;19.92;15.80;;;10.30;99.90;;;;;;5078395;28;20142;-84
2022/02/09 18:33:51;;;;;;;20.65;15.05;;;10.30;99.90;;;;;;5079316;28;20059;-85
2022/02/09 18:40:19;;;;;;;22.88;15.88;;;10.40;99.90;;;;;;5078883;28;20051;-85
2022/02/09 18:42:43;;;;;;;21.98;16.48;;;10.30;99.90;;;;;;5076997;28;20051;-85
2022/02/09 18:44:43;;;;;;;22.65;16.58;;;10.40;99.90;;;;;;5078862;28;20036;-85
2022/02/09 18:47:29;;;;;;;22.98;16.67;;;10.30;99.90;;;;;;5044387;28;20069;-85
2022/02/09 18:59:01;;;;;;;24.98;18.35;;;10.30;99.90;;;;;;5064738;28;20050;-85
2022/02/09 19:03:37;;;;;;;25.00;17.73;;;10.40;99.90;;;;;;5075814;28;20028;-86
2022/02/09 19:06:20;;;;;;;23.17;17.85;;;10.40;99.90;;;;;;5061549;28;20030;-85
2022/02/09 19:49:07;;;;;;;24.08;16.73;;;10.30;99.90;;;;;;5093091;28;20046;-84
2022/02/09 19:56:46;;;;;;;21.77;15.30;;;10.30;99.90;;;;;;5076999;28;20458;-85
2022/02/09 19:59:18;;;;;;;21.05;14.98;;;10.30;99.90;;;;;;5075452;28;20016;-87
2022/02/09 20:01:45;;;;;;;22.70;15.98;;;10.30;99.90;;;;;;5076257;28;20020;-84
2022/02/09 20:04:11;;;;;;;21.48;15.52;;;10.30;99.90;;;;;;5079050;28;20020;-85
2022/02/09 20:06:37;;;;;;;24.73;16.20;;;10.30;99.90;;;;;;5062648;28;20460;-85
2022/02/09 20:09:04;;;;;;;22.55;15.05;;;10.30;99.90;;;;;;5097275;28;20061;-84
2022/02/09 20:11:30;;;;;;;23.10;16.20;;;10.30;99.90;;;;;;5062414;28;20016;-85
2022/02/09 20:13:55;;;;;;;22.67;15.95;;;10.30;99.90;;;;;;5062442;28;20487;-85
2022/02/09 20:16:22;;;;;;;19.85;14.57;;;10.30;99.90;;;;;;5062314;28;20023;-84
2022/02/09 20:18:53;;;;;;;23.15;15.52;;;10.30;99.90;;;;;;5078232;28;20101;-85
2022/02/09 20:21:22;;;;;;;22.83;15.43;;;10.30;99.90;;;;;;5078791;28;20024;-85
2022/02/09 20:23:50;;;;;;;23.92;16.27;;;10.30;99.90;;;;;;5078422;28;20123;-85
2022/02/09 20:26:16;;;;;;;24.42;16.45;;;10.30;99.90;;;;;;5062296;28;20036;-85
2022/02/09 20:28:47;;;;;;;24.38;15.65;;;10.30;99.90;;;;;;5061795;28;20369;-84
2022/02/09 20:31:19;;;;;;;21.63;15.52;;;10.30;99.90;;;;;;5083510;28;20533;-84
2022/02/09 20:33:59;;;;;;;24.38;15.18;;;10.30;99.90;;;;;;5078655;28;20020;-88
2022/02/09 20:36:37;;;;;;;23.40;16.85;;;10.30;99.90;;;;;;5094074;28;20043;-85
2022/02/09 20:39:05;;;;;;;22.70;15.77;;;10.30;99.90;;;;;;5063066;28;20067;-85
2022/02/09 20:41:33;;;;;;;24.52;16.55;;;10.30;99.90;;;;;;5082922;28;20123;-85
2022/02/09 20:44:08;;;;;;;29.52;17.92;;;10.30;99.90;;;;;;5079014;28;20020;-85
2022/02/09 20:46:34;;;;;;;22.92;16.75;;;10.30;99.90;;;;;;5065358;28;20024;-85
2022/02/09 20:49:04;;;;;;;25.33;17.48;;;10.30;99.90;;;;;;5079688;28;20060;-85
2022/02/09 20:51:30;;;;;;;25.65;18.08;;;10.30;99.90;;;;;;5079507;28;20054;-85
2022/02/09 20:53:58;;;;;;;26.75;18.50;;;10.30;99.90;;;;;;5079560;28;20028;-85
2022/02/09 20:56:24;;;;;;;28.55;19.02;;;10.30;99.90;;;;;;5064603;28;20025;-85
2022/02/09 20:58:56;;;;;;;31.05;19.63;;;10.30;99.90;;;;;;5079311;28;20028;-84
2022/02/09 21:01:28;;;;;;;30.58;18.83;;;10.30;99.90;;;;;;5079467;28;20027;-84
2022/02/09 21:04:01;;;;;;;28.95;18.67;;;10.30;99.90;;;;;;5065603;28;20031;-84
2022/02/09 21:10:11;;;;;;;28.00;19.77;;;10.30;99.90;;;;;;5079917;28;20032;-86
2022/02/09 21:54:55;;;;;;;34.67;24.13;;;10.10;99.90;;;;;;5095401;28;20059;-85
2022/02/09 21:56:51;;;;;;;35.53;24.75;;;10.10;99.90;;;;;;5063630;28;20028;-85
2022/02/09 22:26:33;;;;;;;33.80;23.13;;;10.00;99.90;;;;;;5077789;28;20392;-85
2022/02/09 22:32:03;;;;;;;30.25;22.90;;;10.00;99.90;;;;;;5049421;28;20032;-86
2022/02/09 22:50:46;;;;;;;32.67;23.60;;;10.10;99.90;;;;;;5094236;28;20108;-85
2022/02/09 22:55:56;;;;;;;37.78;27.20;;;10.10;99.90;;;;;;5079081;28;20122;-85
2022/02/09 22:58:22;;;;;;;37.92;26.50;;;10.10;99.90;;;;;;5059007;28;20040;-85
2022/02/09 23:00:56;;;;;;;38.92;27.30;;;10.10;99.90;;;;;;5075733;28;20395;-85
2022/02/09 23:09:22;;;;;;;34.80;25.63;;;10.10;99.90;;;;;;5093751;28;20387;-86
2022/02/09 23:14:44;;;;;;;41.47;28.30;;;10.10;99.90;;;;;;5093872;28;20079;-85
